createdAt,value
2017-07-11T00:01:38.702Z,31.77
2017-07-11T00:04:08.928Z,31.43
2017-07-11T00:06:38.779Z,39.10
2017-07-11T00:09:09.051Z,37.43
2017-07-11T00:11:38.895Z,41.93
2017-07-11T00:14:09.176Z,39.17
2017-07-11T00:16:39.020Z,30.60
2017-07-11T00:19:09.325Z,41.80
2017-07-11T00:21:39.224Z,31.10
2017-07-11T00:24:09.446Z,33.57
2017-07-11T00:26:39.299Z,41.30
2017-07-11T00:29:09.183Z,31.00
2017-07-11T00:31:39.481Z,36.27
2017-07-11T00:34:09.343Z,32.20
2017-07-11T00:36:39.575Z,35.07
2017-07-11T00:39:09.433Z,54.97
2017-07-11T00:41:39.330Z,37.10
2017-07-11T00:44:09.586Z,37.70
2017-07-11T00:46:39.441Z,38.80
2017-07-11T00:49:09.356Z,39.60
2017-07-11T00:51:39.539Z,50.10
2017-07-11T00:54:09.527Z,50.80
2017-07-11T00:56:39.402Z,48.50
2017-07-11T00:59:10.192Z,54.20
2017-07-11T01:01:40.128Z,49.67
2017-07-11T01:04:10.411Z,43.60
2017-07-11T01:06:40.254Z,54.17
2017-07-11T01:09:10.455Z,44.17
2017-07-11T01:11:40.398Z,39.37
2017-07-11T01:14:10.257Z,38.30
2017-07-11T01:16:40.450Z,41.83
2017-07-11T01:19:10.296Z,43.93
2017-07-11T01:21:40.242Z,43.73
2017-07-11T01:24:10.480Z,48.00
2017-07-11T01:26:40.355Z,42.40
2017-07-11T01:29:10.231Z,51.90
2017-07-11T01:31:40.422Z,42.30
2017-07-11T01:34:10.292Z,40.33
2017-07-11T01:36:40.180Z,38.63
2017-07-11T01:39:10.378Z,45.10
2017-07-11T01:41:40.244Z,38.40
2017-07-11T01:44:10.547Z,38.73
2017-07-11T01:46:40.401Z,30.40
2017-07-11T01:49:10.263Z,33.70
2017-07-11T01:51:40.619Z,36.70
2017-07-11T01:54:10.466Z,32.70
2017-07-11T01:56:40.303Z,34.07
2017-07-11T01:59:10.519Z,49.23
2017-07-11T02:01:40.375Z,32.87
2017-07-11T02:04:10.225Z,29.90
2017-07-11T02:06:40.505Z,31.97
2017-07-11T02:09:10.359Z,36.90
2017-07-11T02:11:40.293Z,27.33
2017-07-11T02:14:10.563Z,24.80
2017-07-11T02:16:40.432Z,24.20
2017-07-11T02:19:10.303Z,27.57
2017-07-11T02:21:40.505Z,31.13
2017-07-11T02:24:10.362Z,24.23
2017-07-11T02:26:40.261Z,30.53
2017-07-11T02:29:10.666Z,33.53
2017-07-11T02:31:40.534Z,26.57
2017-07-11T02:34:10.450Z,31.03
2017-07-11T02:36:40.629Z,50.47
2017-07-11T02:39:10.475Z,26.07
2017-07-11T02:41:40.351Z,30.43
2017-07-11T02:44:10.708Z,32.63
2017-07-11T02:46:40.601Z,28.93
2017-07-11T02:49:10.890Z,26.90
2017-07-11T02:51:40.740Z,31.30
2017-07-11T02:54:11.031Z,31.63
2017-07-11T02:56:40.888Z,34.90
2017-07-11T02:59:11.148Z,31.23
2017-07-11T03:01:41.010Z,28.00
2017-07-11T03:04:11.311Z,30.27
2017-07-11T03:06:41.173Z,36.87
2017-07-11T03:09:11.431Z,36.87
2017-07-11T03:11:41.276Z,33.70
2017-07-11T03:14:11.557Z,39.80
2017-07-11T03:16:41.406Z,31.03
2017-07-11T03:19:11.296Z,39.87
2017-07-11T03:21:41.493Z,35.07
2017-07-11T03:24:11.332Z,41.70
2017-07-11T03:26:41.219Z,40.63
2017-07-11T03:29:11.437Z,36.23
2017-07-11T03:31:41.282Z,40.20
2017-07-11T03:34:11.583Z,40.17
2017-07-11T03:36:41.485Z,49.83
2017-07-11T03:39:11.337Z,48.13
2017-07-11T03:41:41.628Z,45.13
2017-07-11T03:44:11.472Z,57.10
2017-07-11T03:46:41.337Z,47.03
2017-07-11T03:49:11.667Z,48.83
2017-07-11T03:51:41.519Z,53.90
2017-07-11T03:54:11.753Z,48.80
2017-07-11T03:56:41.620Z,53.80
2017-07-11T03:59:11.851Z,49.73
2017-07-11T04:01:41.708Z,53.93
2017-07-11T04:04:11.984Z,58.10
2017-07-11T04:06:41.848Z,51.77
2017-07-11T04:09:12.218Z,49.70
2017-07-11T04:11:42.110Z,51.17
2017-07-11T04:14:12.340Z,54.53
2017-07-11T04:16:42.194Z,61.20
2017-07-11T04:19:12.472Z,60.17
2017-07-11T04:21:42.376Z,49.57
2017-07-11T04:24:12.662Z,66.30
2017-07-11T04:26:42.685Z,56.27
2017-07-11T04:29:12.978Z,56.80
2017-07-11T04:31:42.854Z,54.40
2017-07-11T04:34:14.120Z,56.73
2017-07-11T04:36:43.964Z,58.60
2017-07-11T04:39:14.248Z,56.90
2017-07-11T04:41:44.086Z,52.43
2017-07-11T04:44:14.291Z,54.43
2017-07-11T04:46:44.141Z,63.37
2017-07-11T04:49:14.370Z,64.30
2017-07-11T04:51:44.223Z,66.07
2017-07-11T04:54:14.522Z,70.30
2017-07-11T04:56:44.384Z,63.10
2017-07-11T04:59:14.996Z,76.53
2017-07-11T05:01:44.854Z,65.50
2017-07-11T05:04:15.063Z,65.70
2017-07-11T05:06:44.914Z,67.30
2017-07-11T05:09:15.169Z,59.87
2017-07-11T05:11:45.001Z,66.70
2017-07-11T05:14:15.298Z,70.27
2017-07-11T05:16:45.145Z,73.80
2017-07-11T05:19:15.433Z,66.20
2017-07-11T05:21:45.285Z,59.03
2017-07-11T05:24:15.562Z,67.13
2017-07-11T05:26:45.420Z,59.17
2017-07-11T05:29:15.275Z,62.20
2017-07-11T05:31:45.610Z,68.57
2017-07-11T05:34:15.490Z,56.17
2017-07-11T05:36:45.359Z,57.77
2017-07-11T05:39:15.556Z,67.50
2017-07-11T05:41:45.429Z,60.37
2017-07-11T05:44:15.286Z,64.27
2017-07-11T05:46:45.502Z,58.77
2017-07-11T05:49:15.392Z,53.07
2017-07-11T05:51:45.856Z,50.57
2017-07-11T05:54:15.706Z,50.50
2017-07-11T05:56:46.018Z,48.23
2017-07-11T05:59:15.972Z,50.30
2017-07-11T06:01:46.223Z,51.17
2017-07-11T06:04:16.098Z,52.93
2017-07-11T06:06:46.263Z,58.77
2017-07-11T06:09:16.112Z,46.37
2017-07-11T06:11:46.456Z,55.73
2017-07-11T06:14:16.297Z,48.30
2017-07-11T06:16:46.522Z,47.87
2017-07-11T06:19:16.385Z,51.23
2017-07-11T06:21:46.297Z,46.30
2017-07-11T06:24:16.537Z,44.43
2017-07-11T06:26:46.405Z,54.27
2017-07-11T06:29:16.265Z,51.63
2017-07-11T06:31:46.514Z,42.17
2017-07-11T06:34:16.394Z,44.67
2017-07-11T06:36:46.264Z,45.00
2017-07-11T06:39:16.563Z,48.53
2017-07-11T06:41:46.429Z,44.73
2017-07-11T06:44:16.349Z,52.00
2017-07-11T06:46:46.607Z,45.07
2017-07-11T06:49:16.461Z,51.07
2017-07-11T06:51:46.350Z,42.77
2017-07-11T06:54:16.560Z,48.20
2017-07-11T06:56:46.416Z,43.33
2017-07-11T06:59:16.268Z,55.83
2017-07-11T07:04:22.835Z,44.57
2017-07-11T07:06:53.181Z,48.73
2017-07-11T07:09:23.035Z,46.70
2017-07-11T07:11:53.243Z,47.37
2017-07-11T07:14:23.165Z,46.87
2017-07-11T07:16:53.452Z,46.70
2017-07-11T07:19:23.307Z,37.43
2017-07-11T07:21:53.589Z,40.13
2017-07-11T07:24:23.437Z,35.80
2017-07-11T07:26:53.446Z,37.57
2017-07-11T07:29:23.692Z,33.80
2017-07-11T07:31:53.551Z,32.77
2017-07-11T07:34:23.791Z,33.93
2017-07-11T07:36:53.631Z,34.70
2017-07-11T07:39:23.905Z,31.33
2017-07-11T07:41:53.755Z,33.60
2017-07-11T07:44:23.960Z,35.13
2017-07-11T07:46:53.828Z,29.17
2017-07-11T07:49:24.037Z,32.67
2017-07-11T07:51:53.922Z,38.20
2017-07-11T07:54:24.203Z,32.60
2017-07-11T07:56:54.082Z,31.50
2017-07-11T07:59:24.291Z,30.17
2017-07-11T08:01:54.158Z,28.87
2017-07-11T08:04:24.372Z,31.43
2017-07-11T08:06:54.267Z,32.77
2017-07-11T08:09:24.531Z,29.90
2017-07-11T08:11:55.065Z,31.77
2017-07-11T08:14:25.268Z,34.70
2017-07-11T08:16:55.194Z,31.07
2017-07-11T08:19:25.500Z,29.83
2017-07-11T08:21:55.351Z,33.70
2017-07-11T08:24:25.637Z,35.23
2017-07-11T08:26:55.906Z,30.63
2017-07-11T08:29:26.223Z,31.13
2017-07-11T08:31:56.090Z,32.27
2017-07-11T08:34:26.270Z,30.00
2017-07-11T08:36:56.124Z,25.33
2017-07-11T08:39:26.349Z,27.20
2017-07-11T08:41:56.201Z,22.60
2017-07-11T08:44:26.509Z,27.10
2017-07-11T08:46:56.376Z,23.80
2017-07-11T08:49:26.600Z,22.87
2017-07-11T08:51:56.443Z,21.97
2017-07-11T08:54:26.313Z,23.63
2017-07-11T08:56:56.559Z,21.77
2017-07-11T08:59:26.474Z,25.43
2017-07-11T09:01:56.346Z,20.63
2017-07-11T09:04:26.610Z,22.60
2017-07-11T09:06:56.470Z,22.60
2017-07-11T09:09:26.345Z,19.90
2017-07-11T09:11:56.651Z,21.77
2017-07-11T09:14:26.510Z,21.70
2017-07-11T09:16:57.207Z,23.77
2017-07-11T09:19:27.330Z,23.80
2017-07-11T09:21:57.561Z,22.60
2017-07-11T09:24:27.411Z,21.77
2017-07-11T09:26:57.313Z,26.53
2017-07-11T09:29:27.495Z,25.07
2017-07-11T09:31:57.382Z,23.00
2017-07-11T09:34:27.399Z,25.63
2017-07-11T09:36:57.742Z,24.90
2017-07-11T09:39:27.605Z,23.23
2017-07-11T09:41:57.862Z,24.30
2017-07-11T09:44:27.757Z,23.97
2017-07-11T09:46:58.003Z,24.97
2017-07-11T09:49:27.869Z,23.67
2017-07-11T09:51:58.156Z,23.70
2017-07-11T09:54:28.042Z,26.53
2017-07-11T09:56:58.325Z,22.47
2017-07-11T09:59:28.179Z,24.80
2017-07-11T10:01:58.472Z,23.90
2017-07-11T10:04:28.362Z,25.03
2017-07-11T10:06:58.649Z,23.00
2017-07-11T10:09:28.508Z,22.53
2017-07-11T10:11:58.388Z,22.40
2017-07-11T10:14:28.706Z,21.53
2017-07-11T10:16:58.583Z,20.87
2017-07-11T10:19:28.799Z,19.80
2017-07-11T10:21:58.718Z,20.77
2017-07-11T10:24:28.946Z,22.47
2017-07-11T10:26:58.977Z,20.20
2017-07-11T10:29:29.308Z,20.07
2017-07-11T10:31:59.172Z,20.17
2017-07-11T10:34:29.527Z,20.83
2017-07-11T10:36:59.442Z,18.67
2017-07-11T10:39:29.633Z,20.33
2017-07-11T10:41:59.557Z,19.63
2017-07-11T10:44:29.814Z,18.33
2017-07-11T10:46:59.763Z,18.90
2017-07-11T10:49:29.983Z,17.93
2017-07-11T10:51:59.841Z,18.23
2017-07-11T10:54:30.095Z,18.40
2017-07-11T10:56:59.946Z,16.93
2017-07-11T10:59:30.223Z,19.17
2017-07-11T11:02:00.108Z,20.50
2017-07-11T11:04:30.314Z,25.50
2017-07-11T11:07:00.162Z,21.27
2017-07-11T11:09:30.377Z,18.27
2017-07-11T11:12:00.262Z,26.00
2017-07-11T11:14:30.519Z,20.77
2017-07-11T11:17:00.381Z,22.63
2017-07-11T11:19:30.248Z,23.07
2017-07-11T11:22:00.486Z,29.57
2017-07-11T11:24:30.343Z,30.30
2017-07-11T11:27:00.211Z,30.93
2017-07-11T11:29:30.423Z,34.90
2017-07-11T11:32:00.296Z,35.13
2017-07-11T11:34:30.556Z,31.83
2017-07-11T11:37:00.416Z,24.77
2017-07-11T11:39:30.301Z,29.53
2017-07-11T11:42:00.628Z,27.77
2017-07-11T11:44:30.511Z,28.43
2017-07-11T11:47:00.397Z,26.97
2017-07-11T11:49:30.614Z,25.10
2017-07-11T11:52:00.465Z,28.20
2017-07-11T11:54:30.383Z,26.87
2017-07-11T11:57:00.617Z,25.10
2017-07-11T11:59:30.492Z,32.20
2017-07-11T12:02:00.361Z,38.83
2017-07-11T12:04:30.634Z,27.50
2017-07-11T12:07:00.496Z,27.30
2017-07-11T12:09:30.385Z,24.10
2017-07-11T12:12:00.607Z,21.57
2017-07-11T12:14:30.511Z,27.67
2017-07-11T12:17:00.387Z,30.63
2017-07-11T12:19:30.633Z,28.47
2017-07-11T12:22:00.509Z,31.80
2017-07-11T12:24:30.406Z,36.50
2017-07-11T12:27:00.724Z,36.10
2017-07-11T12:29:30.597Z,38.97
2017-07-11T12:32:00.831Z,35.67
2017-07-11T12:34:30.700Z,30.97
2017-07-11T12:37:00.965Z,35.43
2017-07-11T12:39:31.574Z,33.90
2017-07-11T12:42:01.852Z,30.20
2017-07-11T12:44:31.710Z,26.87
2017-07-11T12:47:01.939Z,31.30
2017-07-11T12:49:31.806Z,32.40
2017-07-11T12:52:02.086Z,33.10
2017-07-11T12:54:32.015Z,28.33
2017-07-11T12:57:02.299Z,25.80
2017-07-11T12:59:32.167Z,25.67
2017-07-11T13:02:02.459Z,28.00
2017-07-11T13:04:32.309Z,26.70
2017-07-11T13:07:02.601Z,23.30
2017-07-11T13:09:32.458Z,14.40
2017-07-11T13:12:02.329Z,11.70
2017-07-11T13:14:32.623Z,7.57
2017-07-11T13:17:02.507Z,7.83
2017-07-11T13:19:32.409Z,8.33
2017-07-11T13:22:02.686Z,9.33
2017-07-11T13:24:32.536Z,10.10
2017-07-11T13:27:02.822Z,10.30
2017-07-11T13:29:32.739Z,8.70
2017-07-11T13:32:03.033Z,8.10
2017-07-11T13:34:32.887Z,8.63
2017-07-11T13:37:03.188Z,9.60
2017-07-11T13:39:33.949Z,9.00
2017-07-11T13:42:04.247Z,8.77
2017-07-11T13:44:34.096Z,9.80
2017-07-11T13:47:04.363Z,12.10
2017-07-11T13:49:34.222Z,12.17
2017-07-11T13:52:04.678Z,9.30
2017-07-11T13:54:34.538Z,9.03
2017-07-11T13:57:04.990Z,12.97
2017-07-11T13:59:34.831Z,9.33
2017-07-11T14:02:05.074Z,10.60
2017-07-11T14:04:35.026Z,10.90
2017-07-11T14:07:05.311Z,9.87
2017-07-11T14:09:35.175Z,10.10
2017-07-11T14:12:05.451Z,10.47
2017-07-11T14:14:35.431Z,10.47
2017-07-11T14:17:05.327Z,10.80
2017-07-11T14:19:35.703Z,9.07
2017-07-11T14:22:05.584Z,11.33
2017-07-11T14:24:35.924Z,12.70
2017-07-11T14:27:05.779Z,9.53
2017-07-11T14:29:36.082Z,9.53
2017-07-11T14:32:05.973Z,8.90
2017-07-11T14:34:36.191Z,10.63
2017-07-11T14:37:06.054Z,10.00
2017-07-11T14:39:36.431Z,9.47
2017-07-11T14:42:06.286Z,12.20
2017-07-11T14:44:37.517Z,11.30
2017-07-11T14:47:07.405Z,8.77
2017-07-11T14:49:37.278Z,8.13
2017-07-11T14:52:07.550Z,8.20
2017-07-11T14:54:37.423Z,7.53
2017-07-11T14:57:07.288Z,10.33
2017-07-11T14:59:37.738Z,6.90
2017-07-11T15:02:07.586Z,9.23
2017-07-11T15:04:37.966Z,6.30
2017-07-11T15:07:07.888Z,6.97
2017-07-11T15:09:38.097Z,6.43
2017-07-11T15:12:07.955Z,5.57
2017-07-11T15:14:38.181Z,4.77
2017-07-11T15:17:08.033Z,5.67
2017-07-11T15:19:38.363Z,9.80
2017-07-11T15:22:08.220Z,6.27
2017-07-11T15:24:38.480Z,5.63
2017-07-11T15:27:08.359Z,6.80
2017-07-11T15:29:38.670Z,5.67
2017-07-11T15:32:08.554Z,6.10
2017-07-11T15:34:38.875Z,5.40
2017-07-11T15:37:08.714Z,7.30
2017-07-11T15:39:38.956Z,7.83
2017-07-11T15:42:08.849Z,8.57
2017-07-11T15:44:39.047Z,8.60
2017-07-11T15:47:08.903Z,7.47
2017-07-11T15:49:39.121Z,6.13
2017-07-11T15:52:08.978Z,5.23
2017-07-11T15:54:39.176Z,7.43
2017-07-11T15:57:09.086Z,10.10
2017-07-11T15:59:39.285Z,5.90
2017-07-11T16:02:09.171Z,10.97
2017-07-11T16:04:39.334Z,8.90
2017-07-11T16:07:09.174Z,7.10
2017-07-11T16:09:39.449Z,8.40
2017-07-11T16:12:09.318Z,6.30
2017-07-11T16:14:39.525Z,7.20
2017-07-11T16:17:09.389Z,8.13
2017-07-11T16:19:39.267Z,10.03
2017-07-11T16:22:09.620Z,6.67
2017-07-11T16:24:39.452Z,6.80
2017-07-11T16:27:09.411Z,6.80
2017-07-11T16:29:39.723Z,6.33
2017-07-11T16:32:09.573Z,8.10
2017-07-11T16:34:39.855Z,10.60
2017-07-11T16:37:09.718Z,7.83
2017-07-11T16:39:40.002Z,8.83
2017-07-11T16:42:09.890Z,7.07
2017-07-11T16:44:40.224Z,8.10
2017-07-11T16:47:10.098Z,9.53
2017-07-11T16:49:40.392Z,6.17
2017-07-11T16:52:10.273Z,7.47
2017-07-11T16:54:40.536Z,8.07
2017-07-11T16:57:10.410Z,9.33
2017-07-11T16:59:40.304Z,10.90
2017-07-11T17:02:10.535Z,11.30
2017-07-11T17:04:40.384Z,9.80
2017-07-11T17:07:10.264Z,7.20
2017-07-11T17:09:40.478Z,9.80
2017-07-11T17:12:10.337Z,15.60
2017-07-11T17:14:40.227Z,12.30
2017-07-11T17:17:10.538Z,12.17
2017-07-11T17:19:40.384Z,9.97
2017-07-11T17:22:10.258Z,11.03
2017-07-11T17:24:40.561Z,11.80
2017-07-11T17:27:10.441Z,10.97
2017-07-11T17:29:40.375Z,10.27
2017-07-11T17:32:10.585Z,10.57
2017-07-11T17:34:40.447Z,9.60
2017-07-11T17:37:10.367Z,11.90
2017-07-11T17:39:40.670Z,13.13
2017-07-11T17:42:10.562Z,13.70
2017-07-11T17:44:40.828Z,15.77
2017-07-11T17:47:10.715Z,15.27
2017-07-11T17:49:41.054Z,15.90
2017-07-11T17:52:10.907Z,17.63
2017-07-11T17:54:41.191Z,16.13
2017-07-11T17:57:11.058Z,16.57
2017-07-11T17:59:41.261Z,16.10
2017-07-11T18:02:11.119Z,17.40
2017-07-11T18:04:41.355Z,15.50
2017-07-11T18:07:11.213Z,18.63
2017-07-11T18:09:41.509Z,18.77
2017-07-11T18:12:11.349Z,19.57
2017-07-11T18:14:41.241Z,20.50
2017-07-11T18:17:11.614Z,21.17
2017-07-11T18:19:41.473Z,20.70
2017-07-11T18:22:11.364Z,18.97
2017-07-11T18:24:41.718Z,19.10
2017-07-11T18:27:11.591Z,17.77
2017-07-11T18:29:41.778Z,20.77
2017-07-11T18:32:11.643Z,21.70
2017-07-11T18:34:41.805Z,20.60
2017-07-11T18:37:11.718Z,21.70
2017-07-11T18:39:41.990Z,17.63
2017-07-11T18:42:11.965Z,17.97
2017-07-11T18:44:42.220Z,14.37
2017-07-11T18:47:12.235Z,12.87
2017-07-11T18:49:42.572Z,12.27
2017-07-11T18:52:12.748Z,12.33
2017-07-11T18:54:43.078Z,12.60
2017-07-11T18:57:12.986Z,13.13
2017-07-11T18:59:43.203Z,10.77
2017-07-11T19:02:13.068Z,12.27
2017-07-11T19:04:43.295Z,10.47
2017-07-11T19:07:13.168Z,12.17
2017-07-11T19:09:43.528Z,10.13
2017-07-11T19:12:13.501Z,10.50
2017-07-11T19:14:43.776Z,11.43
2017-07-11T19:17:13.711Z,10.90
2017-07-11T19:19:44.007Z,10.70
2017-07-11T19:22:13.890Z,11.57
2017-07-11T19:24:44.140Z,13.80
2017-07-11T19:27:14.049Z,8.77
2017-07-11T19:29:44.443Z,11.37
2017-07-11T19:32:14.632Z,9.60
2017-07-11T19:34:45.129Z,9.60
2017-07-11T19:37:15.271Z,8.93
2017-07-11T19:39:45.754Z,8.57
2017-07-11T19:42:15.724Z,12.20
2017-07-11T19:44:46.025Z,13.53
2017-07-11T19:47:15.887Z,8.47
2017-07-11T19:49:46.119Z,9.80
2017-07-11T19:52:18.411Z,7.83
2017-07-11T19:54:49.261Z,8.13
2017-07-11T19:57:19.162Z,9.23
2017-07-11T19:59:49.460Z,7.67
2017-07-11T20:02:19.338Z,14.50
2017-07-11T20:04:49.714Z,9.80
2017-07-11T20:07:19.622Z,6.60
2017-07-11T20:09:49.980Z,9.37
2017-07-11T20:12:19.871Z,6.70
2017-07-11T20:14:50.186Z,6.90
2017-07-11T20:17:20.049Z,7.63
2017-07-11T20:19:50.305Z,6.03
2017-07-11T20:22:20.157Z,7.63
2017-07-11T20:24:50.439Z,6.63
2017-07-11T20:27:20.342Z,8.57
2017-07-11T20:29:50.553Z,7.53
2017-07-11T20:32:20.959Z,8.83
2017-07-11T20:34:51.260Z,22.73
2017-07-11T20:37:21.310Z,11.13
2017-07-11T20:39:51.580Z,10.07
2017-07-11T20:42:21.569Z,7.47
2017-07-11T20:44:51.978Z,7.60
2017-07-11T20:47:21.859Z,6.40
2017-07-11T20:49:52.177Z,8.67
2017-07-11T20:52:22.030Z,7.17
2017-07-11T20:54:52.233Z,9.33
2017-07-11T20:57:22.100Z,12.47
2017-07-11T20:59:52.406Z,14.63
2017-07-11T21:02:22.258Z,9.60
2017-07-11T21:04:52.531Z,7.57
2017-07-11T21:07:22.407Z,12.10
2017-07-11T21:09:52.326Z,8.53
2017-07-11T21:12:22.550Z,11.73
2017-07-11T21:14:52.406Z,10.10
2017-07-11T21:17:22.279Z,8.50
2017-07-11T21:19:52.511Z,14.33
2017-07-11T21:22:22.384Z,14.27
2017-07-11T21:24:52.241Z,10.83
2017-07-11T21:27:22.462Z,9.80
2017-07-11T21:29:52.377Z,10.40
2017-07-11T21:32:22.251Z,8.23
2017-07-11T21:34:52.516Z,12.57
2017-07-11T21:37:22.449Z,10.90
2017-07-11T21:39:52.385Z,11.73
2017-07-11T21:42:22.710Z,12.20
2017-07-11T21:44:52.564Z,8.80
2017-07-11T21:47:22.888Z,11.60
2017-07-11T21:49:52.773Z,9.40
2017-07-11T21:52:23.208Z,11.27
2017-07-11T21:54:53.190Z,8.10
2017-07-11T21:57:23.594Z,11.17
2017-07-11T21:59:53.530Z,9.00
2017-07-11T22:02:23.406Z,10.43
2017-07-11T22:04:53.650Z,9.70
2017-07-11T22:07:23.506Z,9.10
2017-07-11T22:09:53.395Z,8.53
2017-07-11T22:12:23.618Z,7.77
2017-07-11T22:14:53.476Z,8.37
2017-07-11T22:17:23.347Z,8.67
2017-07-11T22:19:53.554Z,10.20
2017-07-11T22:22:23.459Z,16.43
2017-07-11T22:24:53.380Z,12.83
2017-07-11T22:27:23.649Z,10.43
2017-07-11T22:29:53.517Z,11.13
2017-07-11T22:32:23.473Z,12.00
2017-07-11T22:34:53.757Z,8.63
2017-07-11T22:37:23.639Z,8.77
2017-07-11T22:39:53.903Z,13.73
2017-07-11T22:42:23.790Z,10.50
2017-07-11T22:44:53.969Z,9.30
2017-07-11T22:47:23.840Z,9.87
2017-07-11T22:49:54.150Z,11.03
2017-07-11T22:52:23.982Z,20.87
2017-07-11T22:54:54.218Z,10.73
2017-07-11T22:57:24.093Z,16.47
2017-07-11T22:59:54.334Z,15.30
2017-07-11T23:02:24.194Z,21.77
2017-07-11T23:04:54.471Z,16.87
2017-07-11T23:07:24.312Z,15.60
2017-07-11T23:09:54.580Z,15.47
2017-07-11T23:12:24.481Z,17.67
2017-07-11T23:14:54.727Z,9.67
2017-07-11T23:17:24.595Z,9.87
2017-07-11T23:19:54.965Z,13.67
2017-07-11T23:22:24.811Z,12.70
2017-07-11T23:24:54.760Z,10.93
2017-07-11T23:27:25.089Z,13.57
2017-07-11T23:29:54.975Z,12.53
2017-07-11T23:32:25.303Z,12.70
2017-07-11T23:34:55.159Z,9.87
2017-07-11T23:37:25.367Z,15.50
2017-07-11T23:39:55.232Z,14.97
2017-07-11T23:42:25.487Z,9.67
2017-07-11T23:44:55.355Z,12.80
2017-07-11T23:47:25.250Z,10.70
2017-07-11T23:49:55.648Z,12.60
2017-07-11T23:52:25.511Z,8.97
2017-07-11T23:54:55.389Z,11.33
2017-07-11T23:57:25.591Z,10.97
2017-07-11T23:59:55.481Z,10.40
